Terminal Aerodrome Forecast
Issued by NWS

Home | Current Version | Previous Version | Text Only | Print | Product List | Glossary On
Versions: 1 2 3 4 5 6 7 8 9 10 11 12 13 14 15 16 17 18 19 20 21 22 23 24 25 26 27
000
FTUS46 KOTX 041120
TAFSFF
TAF
KSFF 041120Z 0412/0512 04003KT P6SM FEW090 FEW200
     FM050200 02003KT P6SM VCSH SCT060 BKN100
     FM050900 04005KT P6SM -RA SCT030 BKN060 OVC100=

USA.gov is the U.S. government's official web portal to all federal, state and local government web resources and services.